sensor_id;sensor_type;location;lat;lon;timestamp;pressure;altitude;pressure_sealevel;temperature;humidity
65718;BME280;52445;52.466;-1.016;2023-06-26T00:00:28;100041.59;;;17.93;52.71
65718;BME280;52445;52.466;-1.016;2023-06-26T00:02:55;100052.31;;;17.87;52.89
65718;BME280;52445;52.466;-1.016;2023-06-26T00:05:21;100055.13;;;17.81;52.30
65718;BME280;52445;52.466;-1.016;2023-06-26T00:07:48;100052.59;;;17.78;52.71
65718;BME280;52445;52.466;-1.016;2023-06-26T00:10:15;100056.16;;;17.75;53.35
65718;BME280;52445;52.466;-1.016;2023-06-26T00:12:41;100054.50;;;17.72;52.64
65718;BME280;52445;52.466;-1.016;2023-06-26T00:15:08;100058.13;;;17.68;53.70
65718;BME280;52445;52.466;-1.016;2023-06-26T00:17:35;100051.16;;;17.67;53.36
65718;BME280;52445;52.466;-1.016;2023-06-26T00:20:04;100061.75;;;17.64;53.75
65718;BME280;52445;52.466;-1.016;2023-06-26T00:22:32;100058.38;;;17.60;54.13
65718;BME280;52445;52.466;-1.016;2023-06-26T00:24:58;100065.47;;;17.57;53.65
65718;BME280;52445;52.466;-1.016;2023-06-26T00:27:25;100069.09;;;17.53;54.20
65718;BME280;52445;52.466;-1.016;2023-06-26T00:29:52;100064.91;;;17.47;54.15
65718;BME280;52445;52.466;-1.016;2023-06-26T00:32:19;100066.72;;;17.45;54.31
65718;BME280;52445;52.466;-1.016;2023-06-26T00:34:46;100064.25;;;17.40;54.63
65718;BME280;52445;52.466;-1.016;2023-06-26T00:37:13;100065.19;;;17.38;54.32
65718;BME280;52445;52.466;-1.016;2023-06-26T00:39:41;100069.66;;;17.34;54.04
65718;BME280;52445;52.466;-1.016;2023-06-26T00:42:07;100066.34;;;17.29;54.97
65718;BME280;52445;52.466;-1.016;2023-06-26T00:44:35;100059.38;;;17.28;54.67
65718;BME280;52445;52.466;-1.016;2023-06-26T00:47:01;100062.94;;;17.25;54.56
65718;BME280;52445;52.466;-1.016;2023-06-26T00:49:28;100071.75;;;17.23;55.19
65718;BME280;52445;52.466;-1.016;2023-06-26T00:51:55;100079.69;;;17.19;54.83
65718;BME280;52445;52.466;-1.016;2023-06-26T00:54:22;100085.06;;;17.15;55.90
65718;BME280;52445;52.466;-1.016;2023-06-26T00:56:49;100087.75;;;17.13;55.41
65718;BME280;52445;52.466;-1.016;2023-06-26T00:59:16;100082.59;;;17.10;55.70
65718;BME280;52445;52.466;-1.016;2023-06-26T01:01:43;100086.09;;;17.09;55.38
65718;BME280;52445;52.466;-1.016;2023-06-26T01:04:09;100086.22;;;17.06;55.72
65718;BME280;52445;52.466;-1.016;2023-06-26T01:06:46;100082.72;;;17.04;55.37
65718;BME280;52445;52.466;-1.016;2023-06-26T01:09:17;100088.03;;;17.01;55.64
65718;BME280;52445;52.466;-1.016;2023-06-26T01:11:45;100096.03;;;16.96;56.18
65718;BME280;52445;52.466;-1.016;2023-06-26T01:14:12;100096.16;;;16.91;56.10
65718;BME280;52445;52.466;-1.016;2023-06-26T01:16:40;100096.28;;;16.87;55.85
65718;BME280;52445;52.466;-1.016;2023-06-26T01:19:10;100098.94;;;16.85;56.41
65718;BME280;52445;52.466;-1.016;2023-06-26T01:21:43;100096.47;;;16.80;56.21
65718;BME280;52445;52.466;-1.016;2023-06-26T01:24:18;100097.50;;;16.75;56.03
65718;BME280;52445;52.466;-1.016;2023-06-26T01:26:49;100102.75;;;16.75;56.50
65718;BME280;52445;52.466;-1.016;2023-06-26T01:29:18;100108.06;;;16.72;56.94
65718;BME280;52445;52.466;-1.016;2023-06-26T01:31:47;100105.47;;;16.70;56.51
65718;BME280;52445;52.466;-1.016;2023-06-26T01:34:17;100113.34;;;16.68;56.88
65718;BME280;52445;52.466;-1.016;2023-06-26T01:36:45;100105.59;;;16.65;56.73
65718;BME280;52445;52.466;-1.016;2023-06-26T01:39:15;100104.78;;;16.63;56.78
65718;BME280;52445;52.466;-1.016;2023-06-26T01:41:43;100107.44;;;16.62;56.54
65718;BME280;52445;52.466;-1.016;2023-06-26T01:49:46;100129.72;;;16.43;57.65
65718;BME280;52445;52.466;-1.016;2023-06-26T01:57:47;100122.75;;;16.42;57.54
65718;BME280;52445;52.466;-1.016;2023-06-26T02:00:15;100126.25;;;16.41;57.55
65718;BME280;52445;52.466;-1.016;2023-06-26T02:02:44;100119.41;;;16.37;57.43
65718;BME280;52445;52.466;-1.016;2023-06-26T02:05:12;100128.16;;;16.36;57.09
65718;BME280;52445;52.466;-1.016;2023-06-26T02:07:39;100123.84;;;16.34;57.32
65718;BME280;52445;52.466;-1.016;2023-06-26T02:10:06;100123.00;;;16.33;57.49
65718;BME280;52445;52.466;-1.016;2023-06-26T02:12:34;100126.53;;;16.30;57.99
65718;BME280;52445;52.466;-1.016;2023-06-26T02:15:02;100130.09;;;16.28;57.17
65718;BME280;52445;52.466;-1.016;2023-06-26T02:17:29;100125.78;;;16.25;57.97
65718;BME280;52445;52.466;-1.016;2023-06-26T02:19:56;100119.75;;;16.23;57.66
65718;BME280;52445;52.466;-1.016;2023-06-26T02:22:23;100126.78;;;16.19;57.68
65718;BME280;52445;52.466;-1.016;2023-06-26T02:24:49;100125.13;;;16.17;57.82
65718;BME280;52445;52.466;-1.016;2023-06-26T02:27:16;100131.28;;;16.14;57.49
65718;BME280;52445;52.466;-1.016;2023-06-26T02:29:43;100128.75;;;16.11;58.14
65718;BME280;52445;52.466;-1.016;2023-06-26T02:32:10;100132.28;;;16.09;58.12
65718;BME280;52445;52.466;-1.016;2023-06-26T02:34:37;100128.00;;;16.06;57.78
65718;BME280;52445;52.466;-1.016;2023-06-26T02:37:03;100125.47;;;16.03;58.13
65718;BME280;52445;52.466;-1.016;2023-06-26T02:39:34;100129.91;;;15.99;58.13
65718;BME280;52445;52.466;-1.016;2023-06-26T02:42:01;100134.34;;;15.96;58.46
65718;BME280;52445;52.466;-1.016;2023-06-26T02:44:27;100135.25;;;15.93;58.45
65718;BME280;52445;52.466;-1.016;2023-06-26T02:46:54;100134.47;;;15.89;58.53
65718;BME280;52445;52.466;-1.016;2023-06-26T02:49:21;100138.03;;;15.85;58.54
65718;BME280;52445;52.466;-1.016;2023-06-26T02:51:49;100136.41;;;15.81;58.61
65718;BME280;52445;52.466;-1.016;2023-06-26T02:54:16;100134.75;;;15.77;59.27
65718;BME280;52445;52.466;-1.016;2023-06-26T02:56:43;100137.44;;;15.74;59.06
65718;BME280;52445;52.466;-1.016;2023-06-26T02:59:14;100136.59;;;15.72;59.12
65718;BME280;52445;52.466;-1.016;2023-06-26T03:01:40;100140.16;;;15.67;59.25
65718;BME280;52445;52.466;-1.016;2023-06-26T03:04:07;100142.81;;;15.66;59.12
65718;BME280;52445;52.466;-1.016;2023-06-26T03:06:34;100138.53;;;15.63;59.48
65718;BME280;52445;52.466;-1.016;2023-06-26T03:09:01;100129.88;;;15.61;59.40
65718;BME280;52445;52.466;-1.016;2023-06-26T03:11:28;100142.09;;;15.59;59.12
65718;BME280;52445;52.466;-1.016;2023-06-26T03:13:55;100137.78;;;15.58;59.21
65718;BME280;52445;52.466;-1.016;2023-06-26T03:16:22;100133.53;;;15.54;59.28
65718;BME280;52445;52.466;-1.016;2023-06-26T03:18:48;100139.63;;;15.53;59.82
65718;BME280;52445;52.466;-1.016;2023-06-26T03:21:15;100138.88;;;15.48;59.65
65718;BME280;52445;52.466;-1.016;2023-06-26T03:23:42;100140.63;;;15.46;59.86
65718;BME280;52445;52.466;-1.016;2023-06-26T03:26:08;100149.41;;;15.43;59.94
65718;BME280;52445;52.466;-1.016;2023-06-26T03:28:35;100155.53;;;15.40;59.87
65718;BME280;52445;52.466;-1.016;2023-06-26T03:31:02;100146.06;;;15.36;59.90
65718;BME280;52445;52.466;-1.016;2023-06-26T03:33:28;100154.81;;;15.34;60.12
65718;BME280;52445;52.466;-1.016;2023-06-26T03:35:55;100149.69;;;15.29;60.20
65718;BME280;52445;52.466;-1.016;2023-06-26T03:38:22;100158.41;;;15.28;60.43
65718;BME280;52445;52.466;-1.016;2023-06-26T03:40:48;100161.09;;;15.25;60.25
65718;BME280;52445;52.466;-1.016;2023-06-26T03:43:15;100161.09;;;15.23;60.60
65718;BME280;52445;52.466;-1.016;2023-06-26T03:45:42;100166.38;;;15.20;60.51
65718;BME280;52445;52.466;-1.016;2023-06-26T03:48:08;100172.47;;;15.21;60.63
65718;BME280;52445;52.466;-1.016;2023-06-26T03:50:35;100168.19;;;15.18;60.87
65718;BME280;52445;52.466;-1.016;2023-06-26T03:53:02;100178.66;;;15.15;60.68
65718;BME280;52445;52.466;-1.016;2023-06-26T03:55:29;100181.31;;;15.13;60.97
65718;BME280;52445;52.466;-1.016;2023-06-26T03:57:55;100185.69;;;15.13;60.63
65718;BME280;52445;52.466;-1.016;2023-06-26T04:00:22;100197.00;;;15.10;61.01
65718;BME280;52445;52.466;-1.016;2023-06-26T04:02:48;100201.38;;;15.10;61.26
65718;BME280;52445;52.466;-1.016;2023-06-26T04:05:17;100201.38;;;15.10;61.43
65718;BME280;52445;52.466;-1.016;2023-06-26T04:07:44;100204.84;;;15.10;61.11
65718;BME280;52445;52.466;-1.016;2023-06-26T04:10:11;100203.09;;;15.11;61.26
65718;BME280;52445;52.466;-1.016;2023-06-26T04:12:38;100197.00;;;15.10;61.40
65718;BME280;52445;52.466;-1.016;2023-06-26T04:15:05;100209.19;;;15.11;61.64
65718;BME280;52445;52.466;-1.016;2023-06-26T04:17:32;100205.69;;;15.12;61.75
65718;BME280;52445;52.466;-1.016;2023-06-26T04:19:58;100217.81;;;15.15;61.90
65718;BME280;52445;52.466;-1.016;2023-06-26T04:22:25;100217.72;;;15.20;61.86
65718;BME280;52445;52.466;-1.016;2023-06-26T04:24:52;100212.44;;;15.23;61.90
65718;BME280;52445;52.466;-1.016;2023-06-26T04:27:18;100225.38;;;15.27;62.06
65718;BME280;52445;52.466;-1.016;2023-06-26T04:29:45;100221.84;;;15.30;61.50
65718;BME280;52445;52.466;-1.016;2023-06-26T04:32:12;100222.69;;;15.32;62.06
65718;BME280;52445;52.466;-1.016;2023-06-26T04:34:38;100233.91;;;15.36;62.07
65718;BME280;52445;52.466;-1.016;2023-06-26T04:37:07;100235.56;;;15.41;62.24
65718;BME280;52445;52.466;-1.016;2023-06-26T04:39:37;100232.81;;;15.48;62.45
65718;BME280;52445;52.466;-1.016;2023-06-26T04:42:05;100230.97;;;15.53;62.36
65718;BME280;52445;52.466;-1.016;2023-06-26T04:44:32;100238.69;;;15.59;62.09
65718;BME280;52445;52.466;-1.016;2023-06-26T04:46:59;100243.81;;;15.64;62.45
65718;BME280;52445;52.466;-1.016;2023-06-26T04:49:25;100242.84;;;15.70;62.37
65718;BME280;52445;52.466;-1.016;2023-06-26T04:51:54;100244.50;;;15.74;62.14
65718;BME280;52445;52.466;-1.016;2023-06-26T04:54:21;100249.66;;;15.77;62.52
65718;BME280;52445;52.466;-1.016;2023-06-26T04:56:49;100249.50;;;15.83;62.02
65718;BME280;52445;52.466;-1.016;2023-06-26T04:59:15;100244.16;;;15.89;62.83
65718;BME280;52445;52.466;-1.016;2023-06-26T05:01:42;100249.28;;;15.96;62.60
65718;BME280;52445;52.466;-1.016;2023-06-26T05:04:10;100255.25;;;16.02;62.86
65718;BME280;52445;52.466;-1.016;2023-06-26T05:06:37;100247.22;;;16.10;62.56
65718;BME280;52445;52.466;-1.016;2023-06-26T05:09:03;100256.59;;;16.19;62.70
65718;BME280;52445;52.466;-1.016;2023-06-26T05:11:30;100257.25;;;16.29;62.50
65718;BME280;52445;52.466;-1.016;2023-06-26T05:13:57;100261.38;;;16.39;62.49
65718;BME280;52445;52.466;-1.016;2023-06-26T05:16:23;100264.53;;;16.52;63.03
65718;BME280;52445;52.466;-1.016;2023-06-26T05:18:50;100265.94;;;16.67;62.46
65718;BME280;52445;52.466;-1.016;2023-06-26T05:21:17;100265.56;;;16.83;62.81
65718;BME280;52445;52.466;-1.016;2023-06-26T05:23:44;100271.38;;;16.94;62.35
65718;BME280;52445;52.466;-1.016;2023-06-26T05:26:11;100271.06;;;17.07;61.91
65718;BME280;52445;52.466;-1.016;2023-06-26T05:28:40;100281.13;;;17.23;62.55
65718;BME280;52445;52.466;-1.016;2023-06-26T05:31:06;100276.47;;;17.34;61.71
65718;BME280;52445;52.466;-1.016;2023-06-26T05:33:35;100278.75;;;17.46;61.22
65718;BME280;52445;52.466;-1.016;2023-06-26T05:36:04;100273.06;;;17.62;62.06
65718;BME280;52445;52.466;-1.016;2023-06-26T05:38:31;100276.16;;;17.77;60.87
65718;BME280;52445;52.466;-1.016;2023-06-26T05:40:58;100287.16;;;17.90;61.48
65718;BME280;52445;52.466;-1.016;2023-06-26T05:43:25;100284.28;;;17.97;60.50
65718;BME280;52445;52.466;-1.016;2023-06-26T05:45:56;100287.06;;;17.93;61.35
65718;BME280;52445;52.466;-1.016;2023-06-26T05:48:22;100295.19;;;18.14;61.34
65718;BME280;52445;52.466;-1.016;2023-06-26T05:50:50;100291.31;;;18.26;60.95
65718;BME280;52445;52.466;-1.016;2023-06-26T05:53:17;100299.09;;;18.29;59.89
65718;BME280;52445;52.466;-1.016;2023-06-26T05:55:44;100306.09;;;18.30;60.35
65718;BME280;52445;52.466;-1.016;2023-06-26T05:58:11;100308.75;;;18.28;60.47
65718;BME280;52445;52.466;-1.016;2023-06-26T06:00:39;100309.69;;;18.26;59.95
65718;BME280;52445;52.466;-1.016;2023-06-26T06:03:09;100312.38;;;18.24;60.15
65718;BME280;52445;52.466;-1.016;2023-06-26T06:05:37;100312.38;;;18.24;60.55
65718;BME280;52445;52.466;-1.016;2023-06-26T06:08:03;100318.47;;;18.24;59.92
65718;BME280;52445;52.466;-1.016;2023-06-26T06:10:30;100318.38;;;18.28;60.08
65718;BME280;52445;52.466;-1.016;2023-06-26T06:12:57;100324.44;;;18.30;59.98
65718;BME280;52445;52.466;-1.016;2023-06-26T06:15:24;100329.53;;;18.34;60.36
65718;BME280;52445;52.466;-1.016;2023-06-26T06:17:50;100333.81;;;18.37;60.03
65718;BME280;52445;52.466;-1.016;2023-06-26T06:20:17;100332.06;;;18.37;60.40
65718;BME280;52445;52.466;-1.016;2023-06-26T06:22:46;100342.50;;;18.39;60.12
65718;BME280;52445;52.466;-1.016;2023-06-26T06:25:14;100337.16;;;18.42;59.92
65718;BME280;52445;52.466;-1.016;2023-06-26T06:27:41;100336.25;;;18.43;59.29
65718;BME280;52445;52.466;-1.016;2023-06-26T06:30:09;100336.16;;;18.46;59.67
65718;BME280;52445;52.466;-1.016;2023-06-26T06:32:36;100343.63;;;18.59;60.03
65718;BME280;52445;52.466;-1.016;2023-06-26T06:35:03;100332.56;;;18.78;60.72
65718;BME280;52445;52.466;-1.016;2023-06-26T06:37:37;100339.56;;;19.04;61.09
65718;BME280;52445;52.466;-1.016;2023-06-26T06:40:05;100343.16;;;19.29;60.46
65718;BME280;52445;52.466;-1.016;2023-06-26T06:42:33;100334.41;;;19.53;60.63
65718;BME280;52445;52.466;-1.016;2023-06-26T06:45:02;100333.53;;;19.78;60.29
65718;BME280;52445;52.466;-1.016;2023-06-26T06:47:29;100340.63;;;20.00;59.59
65718;BME280;52445;52.466;-1.016;2023-06-26T06:49:56;100343.50;;;20.18;59.11
65718;BME280;52445;52.466;-1.016;2023-06-26T06:52:23;100346.19;;;20.39;58.58
65718;BME280;52445;52.466;-1.016;2023-06-26T06:54:51;100354.19;;;20.60;58.16
65718;BME280;52445;52.466;-1.016;2023-06-26T06:57:20;100353.41;;;20.78;57.98
65718;BME280;52445;52.466;-1.016;2023-06-26T06:59:47;100363.84;;;21.04;57.52
65718;BME280;52445;52.466;-1.016;2023-06-26T07:02:17;100362.75;;;21.30;57.38
65718;BME280;52445;52.466;-1.016;2023-06-26T07:04:44;100369.56;;;21.55;57.04
65718;BME280;52445;52.466;-1.016;2023-06-26T07:07:12;100373.94;;;21.77;55.88
65718;BME280;52445;52.466;-1.016;2023-06-26T07:09:40;100372.16;;;21.97;55.73
65718;BME280;52445;52.466;-1.016;2023-06-26T07:12:06;100375.75;;;22.15;55.33
65718;BME280;52445;52.466;-1.016;2023-06-26T07:14:33;100375.91;;;22.31;54.51
65718;BME280;52445;52.466;-1.016;2023-06-26T07:17:00;100383.91;;;22.47;54.61
65718;BME280;52445;52.466;-1.016;2023-06-26T07:19:26;100388.22;;;22.69;54.66
65718;BME280;52445;52.466;-1.016;2023-06-26T07:21:53;100392.06;;;22.81;53.85
65718;BME280;52445;52.466;-1.016;2023-06-26T07:24:20;100379.31;;;22.90;52.47
65718;BME280;52445;52.466;-1.016;2023-06-26T07:26:47;100398.28;;;22.98;52.36
65718;BME280;52445;52.466;-1.016;2023-06-26T07:29:16;100393.16;;;22.95;52.04
65718;BME280;52445;52.466;-1.016;2023-06-26T07:31:42;100383.06;;;23.21;52.73
65718;BME280;52445;52.466;-1.016;2023-06-26T07:34:11;100396.16;;;23.42;52.13
65718;BME280;52445;52.466;-1.016;2023-06-26T07:36:38;100399.09;;;23.53;51.24
65718;BME280;52445;52.466;-1.016;2023-06-26T07:39:05;100397.53;;;23.67;51.00
65718;BME280;52445;52.466;-1.016;2023-06-26T07:41:31;100393.91;;;23.85;50.58
65718;BME280;52445;52.466;-1.016;2023-06-26T07:43:58;100401.00;;;24.01;50.14
65718;BME280;52445;52.466;-1.016;2023-06-26T07:46:25;100407.06;;;24.21;50.47
65718;BME280;52445;52.466;-1.016;2023-06-26T07:48:52;100398.28;;;24.36;49.71
65718;BME280;52445;52.466;-1.016;2023-06-26T07:51:21;100400.16;;;24.34;50.06
65718;BME280;52445;52.466;-1.016;2023-06-26T07:53:48;100402.72;;;24.36;48.82
65718;BME280;52445;52.466;-1.016;2023-06-26T07:56:15;100397.25;;;24.23;48.83
65718;BME280;52445;52.466;-1.016;2023-06-26T07:58:41;100393.66;;;24.24;48.36
65718;BME280;52445;52.466;-1.016;2023-06-26T08:01:08;100401.19;;;24.32;48.09
65718;BME280;52445;52.466;-1.016;2023-06-26T08:03:35;100403.41;;;24.23;48.49
65718;BME280;52445;52.466;-1.016;2023-06-26T08:06:02;100409.88;;;24.18;47.82
65718;BME280;52445;52.466;-1.016;2023-06-26T08:08:29;100408.84;;;24.20;48.22
65718;BME280;52445;52.466;-1.016;2023-06-26T08:10:56;100411.59;;;24.35;48.26
65718;BME280;52445;52.466;-1.016;2023-06-26T08:13:23;100410.84;;;24.49;47.71
65718;BME280;52445;52.466;-1.016;2023-06-26T08:15:49;100408.19;;;24.49;47.48
65718;BME280;52445;52.466;-1.016;2023-06-26T08:18:18;100412.28;;;24.38;46.18
65718;BME280;52445;52.466;-1.016;2023-06-26T08:20:44;100400.84;;;24.22;45.85
65718;BME280;52445;52.466;-1.016;2023-06-26T08:23:11;100400.31;;;24.15;45.57
65718;BME280;52445;52.466;-1.016;2023-06-26T08:25:37;100412.53;;;24.00;45.66
65718;BME280;52445;52.466;-1.016;2023-06-26T08:28:04;100413.03;;;23.91;46.46
65718;BME280;52445;52.466;-1.016;2023-06-26T08:30:32;100414.06;;;23.88;45.25
65718;BME280;52445;52.466;-1.016;2023-06-26T08:32:58;100409.41;;;23.75;45.30
65718;BME280;52445;52.466;-1.016;2023-06-26T08:35:25;100407.16;;;23.68;45.71
65718;BME280;52445;52.466;-1.016;2023-06-26T08:37:52;100405.28;;;23.70;45.96
65718;BME280;52445;52.466;-1.016;2023-06-26T08:40:21;100404.97;;;23.76;45.43
65718;BME280;52445;52.466;-1.016;2023-06-26T08:42:48;100405.66;;;23.80;45.27
65718;BME280;52445;52.466;-1.016;2023-06-26T08:45:19;100416.06;;;23.83;45.24
65718;BME280;52445;52.466;-1.016;2023-06-26T08:47:48;100421.66;;;24.12;46.52
65718;BME280;52445;52.466;-1.016;2023-06-26T08:50:19;100412.69;;;24.47;45.57
65718;BME280;52445;52.466;-1.016;2023-06-26T08:52:54;100418.34;;;24.57;44.86
65718;BME280;52445;52.466;-1.016;2023-06-26T08:55:23;100415.53;;;24.60;44.19
65718;BME280;52445;52.466;-1.016;2023-06-26T08:57:52;100422.00;;;24.54;44.35
65718;BME280;52445;52.466;-1.016;2023-06-26T09:00:20;100424.66;;;24.54;43.95
65718;BME280;52445;52.466;-1.016;2023-06-26T09:02:47;100426.97;;;24.44;44.23
65718;BME280;52445;52.466;-1.016;2023-06-26T09:05:14;100419.47;;;24.36;43.69
65718;BME280;52445;52.466;-1.016;2023-06-26T09:07:41;100422.25;;;24.49;43.95
65718;BME280;52445;52.466;-1.016;2023-06-26T09:10:08;100426.84;;;24.78;44.49
65718;BME280;52445;52.466;-1.016;2023-06-26T09:12:36;100429.13;;;25.16;44.07
65718;BME280;52445;52.466;-1.016;2023-06-26T09:15:05;100421.91;;;25.35;43.55
65718;BME280;52445;52.466;-1.016;2023-06-26T09:17:38;100422.19;;;25.45;42.63
65718;BME280;52445;52.466;-1.016;2023-06-26T09:20:06;100427.28;;;25.64;43.00
65718;BME280;52445;52.466;-1.016;2023-06-26T09:22:40;100422.94;;;25.77;42.42
65718;BME280;52445;52.466;-1.016;2023-06-26T09:25:07;100428.34;;;25.76;42.09
65718;BME280;52445;52.466;-1.016;2023-06-26T09:27:35;100429.19;;;25.76;41.70
65718;BME280;52445;52.466;-1.016;2023-06-26T09:30:04;100443.69;;;25.71;41.85
65718;BME280;52445;52.466;-1.016;2023-06-26T09:32:35;100441.91;;;25.71;41.46
65718;BME280;52445;52.466;-1.016;2023-06-26T09:35:03;100436.28;;;25.76;41.75
65718;BME280;52445;52.466;-1.016;2023-06-26T09:37:30;100434.41;;;25.78;40.93
65718;BME280;52445;52.466;-1.016;2023-06-26T09:39:57;100432.72;;;25.77;40.61
65718;BME280;52445;52.466;-1.016;2023-06-26T09:42:24;100442.00;;;25.84;40.72
65718;BME280;52445;52.466;-1.016;2023-06-26T09:44:51;100442.94;;;25.98;40.63
65718;BME280;52445;52.466;-1.016;2023-06-26T09:47:19;100448.34;;;26.11;40.71
65718;BME280;52445;52.466;-1.016;2023-06-26T09:49:47;100446.16;;;26.17;39.77
65718;BME280;52445;52.466;-1.016;2023-06-26T09:52:15;100447.03;;;26.18;39.44
65718;BME280;52445;52.466;-1.016;2023-06-26T09:54:43;100450.22;;;26.23;40.30
65718;BME280;52445;52.466;-1.016;2023-06-26T09:57:12;100446.34;;;26.43;39.88
65718;BME280;52445;52.466;-1.016;2023-06-26T09:59:40;100448.22;;;26.56;39.94
65718;BME280;52445;52.466;-1.016;2023-06-26T10:02:07;100460.44;;;26.73;39.96
65718;BME280;52445;52.466;-1.016;2023-06-26T10:04:35;100470.69;;;26.92;39.65
65718;BME280;52445;52.466;-1.016;2023-06-26T10:07:04;100462.38;;;26.99;37.65
65718;BME280;52445;52.466;-1.016;2023-06-26T10:09:32;100459.31;;;27.05;37.62
65718;BME280;52445;52.466;-1.016;2023-06-26T10:12:02;100456.22;;;27.11;38.10
65718;BME280;52445;52.466;-1.016;2023-06-26T10:14:34;100462.50;;;27.10;37.85
65718;BME280;52445;52.466;-1.016;2023-06-26T10:17:04;100474.25;;;27.20;38.77
65718;BME280;52445;52.466;-1.016;2023-06-26T10:19:33;100476.72;;;27.37;38.75
65718;BME280;52445;52.466;-1.016;2023-06-26T10:22:02;100471.81;;;27.43;37.62
65718;BME280;52445;52.466;-1.016;2023-06-26T10:24:33;100473.56;;;27.57;37.65
65718;BME280;52445;52.466;-1.016;2023-06-26T10:27:07;100471.28;;;27.66;37.33
65718;BME280;52445;52.466;-1.016;2023-06-26T10:29:36;100466.69;;;27.68;36.60
65718;BME280;52445;52.466;-1.016;2023-06-26T10:32:04;100465.72;;;27.82;37.61
65718;BME280;52445;52.466;-1.016;2023-06-26T10:34:33;100477.97;;;27.97;37.75
65718;BME280;52445;52.466;-1.016;2023-06-26T10:37:02;100482.75;;;28.18;37.83
65718;BME280;52445;52.466;-1.016;2023-06-26T10:42:39;100484.44;;;28.45;37.20
65718;BME280;52445;52.466;-1.016;2023-06-26T10:45:15;100488.13;;;28.56;36.99
65718;BME280;52445;52.466;-1.016;2023-06-26T10:47:46;100492.28;;;28.60;37.36
65718;BME280;52445;52.466;-1.016;2023-06-26T10:50:18;100492.53;;;28.57;35.92
65718;BME280;52445;52.466;-1.016;2023-06-26T10:55:58;100486.06;;;28.72;36.78
65718;BME280;52445;52.466;-1.016;2023-06-26T11:01:23;100486.00;;;28.85;36.06
65718;BME280;52445;52.466;-1.016;2023-06-26T11:06:35;100495.91;;;28.59;35.32
65718;BME280;52445;52.466;-1.016;2023-06-26T11:11:59;100485.75;;;28.01;34.88
65718;BME280;52445;52.466;-1.016;2023-06-26T11:14:31;100489.78;;;27.93;36.33
65718;BME280;52445;52.466;-1.016;2023-06-26T11:16:59;100490.75;;;27.79;36.17
65718;BME280;52445;52.466;-1.016;2023-06-26T11:19:28;100498.94;;;27.63;36.14
65718;BME280;52445;52.466;-1.016;2023-06-26T11:22:03;100490.16;;;27.61;36.66
65718;BME280;52445;52.466;-1.016;2023-06-26T11:24:30;100489.66;;;27.28;36.29
65718;BME280;52445;52.466;-1.016;2023-06-26T11:27:00;100497.69;;;27.41;36.42
65718;BME280;52445;52.466;-1.016;2023-06-26T11:29:27;100495.81;;;27.16;36.07
65718;BME280;52445;52.466;-1.016;2023-06-26T11:31:58;100502.78;;;27.04;37.08
65718;BME280;52445;52.466;-1.016;2023-06-26T11:34:31;100499.38;;;27.02;36.94
65718;BME280;52445;52.466;-1.016;2023-06-26T11:36:58;100494.41;;;26.95;37.11
65718;BME280;52445;52.466;-1.016;2023-06-26T11:39:27;100489.81;;;27.12;38.16
65718;BME280;52445;52.466;-1.016;2023-06-26T11:41:54;100495.03;;;27.41;37.66
65718;BME280;52445;52.466;-1.016;2023-06-26T11:44:21;100497.00;;;27.65;37.40
65718;BME280;52445;52.466;-1.016;2023-06-26T11:46:51;100491.03;;;27.75;36.73
65718;BME280;52445;52.466;-1.016;2023-06-26T11:49:18;100503.78;;;27.56;35.73
65718;BME280;52445;52.466;-1.016;2023-06-26T11:51:46;100495.44;;;27.35;36.01
65718;BME280;52445;52.466;-1.016;2023-06-26T11:54:13;100502.56;;;27.07;36.38
65718;BME280;52445;52.466;-1.016;2023-06-26T11:56:42;100505.03;;;26.95;36.28
65718;BME280;52445;52.466;-1.016;2023-06-26T11:59:11;100506.00;;;27.09;37.08
65718;BME280;52445;52.466;-1.016;2023-06-26T12:01:39;100503.34;;;27.09;36.72
65718;BME280;52445;52.466;-1.016;2023-06-26T12:04:07;100512.31;;;26.79;36.53
65718;BME280;52445;52.466;-1.016;2023-06-26T12:06:36;100507.72;;;26.81;36.38
65718;BME280;52445;52.466;-1.016;2023-06-26T12:09:07;100517.06;;;26.74;36.60
65718;BME280;52445;52.466;-1.016;2023-06-26T12:11:37;100517.75;;;26.63;37.17
65718;BME280;52445;52.466;-1.016;2023-06-26T12:14:05;100523.38;;;26.58;37.42
65718;BME280;52445;52.466;-1.016;2023-06-26T12:16:33;100518.16;;;26.56;37.39
65718;BME280;52445;52.466;-1.016;2023-06-26T12:19:02;100517.56;;;26.51;37.19
65718;BME280;52445;52.466;-1.016;2023-06-26T12:24:13;100518.50;;;26.79;35.75
65718;BME280;52445;52.466;-1.016;2023-06-26T12:26:45;100519.38;;;26.36;37.30
65718;BME280;52445;52.466;-1.016;2023-06-26T12:29:14;100527.72;;;26.30;37.30
65718;BME280;52445;52.466;-1.016;2023-06-26T12:31:43;100520.53;;;26.47;38.11
65718;BME280;52445;52.466;-1.016;2023-06-26T12:34:12;100522.50;;;26.58;37.20
65718;BME280;52445;52.466;-1.016;2023-06-26T12:36:41;100523.38;;;26.58;36.47
65718;BME280;52445;52.466;-1.016;2023-06-26T12:39:10;100521.81;;;26.54;36.66
65718;BME280;52445;52.466;-1.016;2023-06-26T12:41:46;100525.44;;;26.53;37.05
65718;BME280;52445;52.466;-1.016;2023-06-26T12:46:59;100517.84;;;26.61;37.19
65718;BME280;52445;52.466;-1.016;2023-06-26T12:52:07;100523.16;;;26.61;37.18
65718;BME280;52445;52.466;-1.016;2023-06-26T12:54:35;100520.91;;;26.55;37.12
65718;BME280;52445;52.466;-1.016;2023-06-26T12:57:02;100519.09;;;26.41;36.77
65718;BME280;52445;52.466;-1.016;2023-06-26T12:59:31;100525.25;;;26.27;36.67
65718;BME280;52445;52.466;-1.016;2023-06-26T13:01:58;100529.75;;;26.10;36.83
65718;BME280;52445;52.466;-1.016;2023-06-26T13:04:26;100521.78;;;25.96;37.31
65718;BME280;52445;52.466;-1.016;2023-06-26T13:06:53;100524.25;;;25.84;37.46
65718;BME280;52445;52.466;-1.016;2023-06-26T13:09:23;100523.75;;;25.77;37.82
65718;BME280;52445;52.466;-1.016;2023-06-26T13:11:51;100523.25;;;25.71;38.23
65718;BME280;52445;52.466;-1.016;2023-06-26T13:14:18;100518.31;;;25.64;38.47
65718;BME280;52445;52.466;-1.016;2023-06-26T13:16:45;100516.94;;;25.57;38.17